createdAt,value
2019-02-23T00:00:53.908Z,2.08
2019-02-23T00:15:51.073Z,1.64
2019-02-23T00:30:50.665Z,1.11
2019-02-23T00:45:50.648Z,-0.40
2019-02-23T01:00:51.070Z,-1.70
2019-02-23T01:15:50.931Z,-1.77
2019-02-23T01:30:50.833Z,-1.76
2019-02-23T01:45:52.545Z,-1.97
2019-02-23T02:00:53.298Z,-2.24
2019-02-23T02:15:55.656Z,-2.19
2019-02-23T02:45:51.025Z,-2.07
2019-02-23T03:00:51.427Z,-2.76
2019-02-23T03:15:51.320Z,-3.31
2019-02-23T03:30:50.230Z,-3.50
2019-02-23T03:45:51.279Z,-3.03
2019-02-23T04:00:53.807Z,-3.35
2019-02-23T04:15:51.509Z,-3.69
2019-02-23T04:30:51.483Z,-4.86
2019-02-23T04:45:51.398Z,-5.29
2019-02-23T05:00:51.768Z,-5.72
2019-02-23T05:15:51.644Z,-5.91
2019-02-23T05:30:51.530Z,-5.42
2019-02-23T05:45:51.417Z,-6.01
2019-02-23T06:00:51.265Z,-5.99
2019-02-23T06:15:52.346Z,-6.18
2019-02-23T06:30:51.212Z,-5.92
2019-02-23T06:45:51.125Z,-5.09
2019-02-23T07:00:51.164Z,-5.44
2019-02-23T07:15:53.420Z,-5.81
2019-02-23T07:30:52.927Z,-5.75
2019-02-23T07:45:53.413Z,-5.29
2019-02-23T08:00:51.307Z,-4.91
2019-02-23T08:15:51.672Z,-4.15
2019-02-23T08:30:51.608Z,-3.79
2019-02-23T08:45:53.530Z,-4.40
2019-02-23T09:00:51.475Z,-3.95
2019-02-23T09:15:50.878Z,-3.76
2019-02-23T09:30:50.785Z,-3.62
2019-02-23T09:45:50.646Z,-2.30
2019-02-23T10:00:51.825Z,-2.69
2019-02-23T10:15:51.032Z,-3.37
2019-02-23T10:30:50.956Z,-3.82
2019-02-23T10:45:50.863Z,-2.85
2019-02-23T11:00:50.913Z,-3.31
2019-02-23T11:15:50.876Z,-3.12
2019-02-23T11:30:50.799Z,-3.29
2019-02-23T11:45:51.773Z,-2.91
2019-02-23T12:00:50.644Z,-4.02
2019-02-23T12:15:51.587Z,-4.12
2019-02-23T12:30:51.500Z,-4.19
2019-02-23T12:45:51.487Z,-4.57
2019-02-23T13:00:51.384Z,-4.50
2019-02-23T13:45:58.437Z,-4.63
2019-02-23T16:00:51.144Z,-5.43
2019-02-23T16:15:51.436Z,-5.73
2019-02-23T16:30:53.349Z,-6.13
2019-02-23T16:45:51.578Z,-6.49
2019-02-23T17:00:51.200Z,-6.65
2019-02-23T17:15:51.508Z,-6.69
2019-02-23T17:30:51.481Z,-6.77
2019-02-23T17:45:51.472Z,-6.60
2019-02-23T18:00:51.376Z,-6.61
2019-02-23T18:15:52.004Z,-6.79
2019-02-23T18:30:50.784Z,-6.89
2019-02-23T18:45:51.755Z,-6.67
2019-02-23T19:00:57.644Z,-6.90
2019-02-23T19:15:50.980Z,-6.97
2019-02-23T19:30:51.161Z,-6.98
2019-02-23T19:45:50.967Z,-6.84
2019-02-23T20:00:50.827Z,-6.78
2019-02-23T20:15:51.239Z,-6.53
2019-02-23T20:30:56.661Z,-6.79
2019-02-23T20:45:51.056Z,-6.85
2019-02-23T21:00:51.189Z,-6.73
2019-02-23T21:15:51.479Z,-6.76
2019-02-23T21:30:51.451Z,-6.69
2019-02-23T21:45:51.356Z,-6.90
2019-02-23T22:00:52.212Z,-6.95
2019-02-23T22:15:53.622Z,-7.07
2019-02-23T22:30:52.400Z,-7.06
2019-02-23T22:45:51.419Z,-6.98
2019-02-23T23:00:54.477Z,-7.04
2019-02-23T23:15:50.811Z,-7.17
2019-02-23T23:30:50.717Z,-7.31
2019-02-23T23:45:51.635Z,-7.38
